sensor_id;sensor_type;location;lat;lon;timestamp;pressure;altitude;pressure_sealevel;temperature;humidity
77869;BME280;67231;59.144;37.934;2023-09-30T00:01:22;100271.72;;;13.60;84.81
77869;BME280;67231;59.144;37.934;2023-09-30T00:03:49;100276.19;;;13.59;85.15
77869;BME280;67231;59.144;37.934;2023-09-30T00:06:15;100281.03;;;13.56;84.84
77869;BME280;67231;59.144;37.934;2023-09-30T00:08:41;100275.03;;;13.54;84.86
77869;BME280;67231;59.144;37.934;2023-09-30T00:11:09;100273.69;;;13.50;85.16
77869;BME280;67231;59.144;37.934;2023-09-30T00:13:36;100277.53;;;13.47;85.30
77869;BME280;67231;59.144;37.934;2023-09-30T00:16:02;100274.88;;;13.47;85.43
77869;BME280;67231;59.144;37.934;2023-09-30T00:18:28;100275.84;;;13.46;85.19
77869;BME280;67231;59.144;37.934;2023-09-30T00:20:54;100279.66;;;13.43;84.92
77869;BME280;67231;59.144;37.934;2023-09-30T00:23:21;100277.00;;;13.43;84.95
77869;BME280;67231;59.144;37.934;2023-09-30T00:25:47;100270.34;;;13.39;85.22
77869;BME280;67231;59.144;37.934;2023-09-30T00:28:16;100273.69;;;13.41;84.92
77869;BME280;67231;59.144;37.934;2023-09-30T00:30:42;100269.38;;;13.40;84.90
77869;BME280;67231;59.144;37.934;2023-09-30T00:33:12;100268.34;;;13.41;85.25
77869;BME280;67231;59.144;37.934;2023-09-30T00:35:39;100274.69;;;13.40;85.22
77869;BME280;67231;59.144;37.934;2023-09-30T00:38:06;100260.84;;;13.37;85.15
77869;BME280;67231;59.144;37.934;2023-09-30T00:40:33;100267.84;;;13.38;85.04
77869;BME280;67231;59.144;37.934;2023-09-30T00:43:01;100266.00;;;13.38;84.66
77869;BME280;67231;59.144;37.934;2023-09-30T00:45:28;100260.84;;;13.37;84.76
77869;BME280;67231;59.144;37.934;2023-09-30T00:47:55;100265.03;;;13.39;85.25
77869;BME280;67231;59.144;37.934;2023-09-30T00:50:22;100265.03;;;13.39;85.20
77869;BME280;67231;59.144;37.934;2023-09-30T00:52:49;100268.34;;;13.41;85.28
77869;BME280;67231;59.144;37.934;2023-09-30T00:55:16;100273.19;;;13.46;84.74
77869;BME280;67231;59.144;37.934;2023-09-30T00:57:44;100263.03;;;13.50;84.75
77869;BME280;67231;59.144;37.934;2023-09-30T01:00:11;100263.72;;;13.52;85.04
77869;BME280;67231;59.144;37.934;2023-09-30T01:02:41;100257.84;;;13.56;84.82
77869;BME280;67231;59.144;37.934;2023-09-30T01:05:10;100263.03;;;13.58;84.54
77869;BME280;67231;59.144;37.934;2023-09-30T01:07:36;100256.03;;;13.57;84.12
77869;BME280;67231;59.144;37.934;2023-09-30T01:10:03;100261.38;;;13.57;84.69
77869;BME280;67231;59.144;37.934;2023-09-30T01:12:31;100258.06;;;13.55;84.70
77869;BME280;67231;59.144;37.934;2023-09-30T01:14:58;100253.53;;;13.55;84.32
77869;BME280;67231;59.144;37.934;2023-09-30T01:17:26;100259.88;;;13.54;84.20
77869;BME280;67231;59.144;37.934;2023-09-30T01:19:57;100251.88;;;13.54;84.35
77869;BME280;67231;59.144;37.934;2023-09-30T01:22:25;100259.03;;;13.54;84.31
77869;BME280;67231;59.144;37.934;2023-09-30T01:24:54;100245.72;;;13.54;84.46
77869;BME280;67231;59.144;37.934;2023-09-30T01:27:20;100246.69;;;13.53;84.63
77869;BME280;67231;59.144;37.934;2023-09-30T01:29:47;100246.03;;;13.51;84.35
77869;BME280;67231;59.144;37.934;2023-09-30T01:32:14;100235.72;;;13.47;84.43
77869;BME280;67231;59.144;37.934;2023-09-30T01:34:40;100236.69;;;13.46;84.57
77869;BME280;67231;59.144;37.934;2023-09-30T01:37:07;100233.38;;;13.44;84.36
77869;BME280;67231;59.144;37.934;2023-09-30T01:39:34;100229.88;;;13.44;84.75
77869;BME280;67231;59.144;37.934;2023-09-30T01:42:00;100237.22;;;13.42;84.55
77869;BME280;67231;59.144;37.934;2023-09-30T01:44:27;100239.34;;;13.38;84.69
77869;BME280;67231;59.144;37.934;2023-09-30T01:46:53;100236.03;;;13.36;84.88
77869;BME280;67231;59.144;37.934;2023-09-30T01:49:20;100235.03;;;13.37;84.82
77869;BME280;67231;59.144;37.934;2023-09-30T01:51:50;100233.53;;;13.35;84.79
77869;BME280;67231;59.144;37.934;2023-09-30T01:54:17;100236.19;;;13.35;84.93
77869;BME280;67231;59.144;37.934;2023-09-30T01:56:43;100228.38;;;13.33;84.97
77869;BME280;67231;59.144;37.934;2023-09-30T01:59:10;100224.72;;;13.34;84.94
77869;BME280;67231;59.144;37.934;2023-09-30T02:01:36;100229.19;;;13.34;84.72
77869;BME280;67231;59.144;37.934;2023-09-30T02:04:02;100231.84;;;13.34;84.89
77869;BME280;67231;59.144;37.934;2023-09-30T02:06:29;100223.16;;;13.32;84.93
77869;BME280;67231;59.144;37.934;2023-09-30T02:08:55;100222.72;;;13.36;84.75
77869;BME280;67231;59.144;37.934;2023-09-30T02:11:22;100229.56;;;13.39;84.50
77869;BME280;67231;59.144;37.934;2023-09-30T02:13:48;100217.22;;;13.38;84.55
77869;BME280;67231;59.144;37.934;2023-09-30T02:16:15;100231.03;;;13.41;84.79
77869;BME280;67231;59.144;37.934;2023-09-30T02:18:43;100217.53;;;13.43;84.95
77869;BME280;67231;59.144;37.934;2023-09-30T02:21:12;100215.69;;;13.43;84.54
77869;BME280;67231;59.144;37.934;2023-09-30T02:23:39;100213.03;;;13.43;84.32
77869;BME280;67231;59.144;37.934;2023-09-30T02:26:05;100218.88;;;13.47;84.19
77869;BME280;67231;59.144;37.934;2023-09-30T02:28:32;100211.56;;;13.49;84.22
77869;BME280;67231;59.144;37.934;2023-09-30T02:31:01;100211.38;;;13.51;84.38
77869;BME280;67231;59.144;37.934;2023-09-30T02:33:28;100209.72;;;13.50;84.20
77869;BME280;67231;59.144;37.934;2023-09-30T02:35:55;100202.56;;;13.50;84.06
77869;BME280;67231;59.144;37.934;2023-09-30T02:38:21;100210.41;;;13.52;84.14
77869;BME280;67231;59.144;37.934;2023-09-30T02:40:50;100201.72;;;13.50;84.42
77869;BME280;67231;59.144;37.934;2023-09-30T02:43:17;100202.72;;;13.48;84.45
77869;BME280;67231;59.144;37.934;2023-09-30T02:45:44;100188.06;;;13.44;84.15
77869;BME280;67231;59.144;37.934;2023-09-30T02:48:10;100198.38;;;13.39;84.56
77869;BME280;67231;59.144;37.934;2023-09-30T02:50:37;100204.88;;;13.37;84.64
77869;BME280;67231;59.144;37.934;2023-09-30T02:53:05;100197.34;;;13.32;84.47
77869;BME280;67231;59.144;37.934;2023-09-30T02:55:32;100197.88;;;13.27;84.39
77869;BME280;67231;59.144;37.934;2023-09-30T02:57:59;100195.69;;;13.23;84.79
77869;BME280;67231;59.144;37.934;2023-09-30T03:00:27;100202.66;;;13.24;84.79
77869;BME280;67231;59.144;37.934;2023-09-30T03:03:00;100193.03;;;13.23;84.17
77869;BME280;67231;59.144;37.934;2023-09-30T03:05:28;100188.69;;;13.22;84.94
77869;BME280;67231;59.144;37.934;2023-09-30T03:07:56;100192.34;;;13.21;84.84
77869;BME280;67231;59.144;37.934;2023-09-30T03:10:23;100192.16;;;13.22;84.92
77869;BME280;67231;59.144;37.934;2023-09-30T03:12:53;100178.03;;;13.22;84.92
77869;BME280;67231;59.144;37.934;2023-09-30T03:15:20;100177.69;;;13.25;84.95
77869;BME280;67231;59.144;37.934;2023-09-30T03:17:47;100181.03;;;13.27;84.62
77869;BME280;67231;59.144;37.934;2023-09-30T03:20:13;100181.03;;;13.27;84.61
77869;BME280;67231;59.144;37.934;2023-09-30T03:22:41;100175.69;;;13.27;84.78
77869;BME280;67231;59.144;37.934;2023-09-30T03:25:12;100180.69;;;13.30;84.83
77869;BME280;67231;59.144;37.934;2023-09-30T03:27:39;100177.03;;;13.31;84.41
77869;BME280;67231;59.144;37.934;2023-09-30T03:30:08;100175.34;;;13.30;84.64
77869;BME280;67231;59.144;37.934;2023-09-30T03:32:35;100164.03;;;13.28;84.87
77869;BME280;67231;59.144;37.934;2023-09-30T03:35:05;100172.03;;;13.28;84.78
77869;BME280;67231;59.144;37.934;2023-09-30T03:37:32;100178.19;;;13.28;84.52
77869;BME280;67231;59.144;37.934;2023-09-30T03:39:58;100175.53;;;13.28;84.54
77869;BME280;67231;59.144;37.934;2023-09-30T03:42:25;100176.19;;;13.30;84.56
77869;BME280;67231;59.144;37.934;2023-09-30T03:44:51;100173.72;;;13.29;84.88
77869;BME280;67231;59.144;37.934;2023-09-30T03:47:18;100166.72;;;13.28;84.83
77869;BME280;67231;59.144;37.934;2023-09-30T03:49:45;100154.38;;;13.27;84.55
77869;BME280;67231;59.144;37.934;2023-09-30T03:52:11;100165.34;;;13.24;84.83
77869;BME280;67231;59.144;37.934;2023-09-30T03:54:38;100170.69;;;13.24;84.61
77869;BME280;67231;59.144;37.934;2023-09-30T03:57:04;100169.03;;;13.23;84.84
77869;BME280;67231;59.144;37.934;2023-09-30T03:59:31;100157.38;;;13.24;84.71
77869;BME280;67231;59.144;37.934;2023-09-30T04:01:57;100156.38;;;13.25;84.59
77869;BME280;67231;59.144;37.934;2023-09-30T04:04:24;100165.88;;;13.27;84.39
77869;BME280;67231;59.144;37.934;2023-09-30T04:06:52;100165.72;;;13.29;84.83
77869;BME280;67231;59.144;37.934;2023-09-30T04:09:20;100160.38;;;13.29;84.53
77869;BME280;67231;59.144;37.934;2023-09-30T04:11:47;100167.19;;;13.32;84.77
77869;BME280;67231;59.144;37.934;2023-09-30T04:14:13;100167.56;;;13.37;84.29
77869;BME280;67231;59.144;37.934;2023-09-30T04:16:40;100159.22;;;13.40;84.43
77869;BME280;67231;59.144;37.934;2023-09-30T04:19:07;100156.06;;;13.44;84.27
77869;BME280;67231;59.144;37.934;2023-09-30T04:21:36;100159.91;;;13.50;83.75
77869;BME280;67231;59.144;37.934;2023-09-30T04:24:05;100153.38;;;13.53;83.93
77869;BME280;67231;59.144;37.934;2023-09-30T04:26:33;100147.38;;;13.59;83.95
77869;BME280;67231;59.144;37.934;2023-09-30T04:28:59;100156.56;;;13.64;83.55
77869;BME280;67231;59.144;37.934;2023-09-30T04:31:28;100147.69;;;13.72;83.69
77869;BME280;67231;59.144;37.934;2023-09-30T04:33:54;100163.72;;;13.80;83.11
77869;BME280;67231;59.144;37.934;2023-09-30T04:36:21;100148.97;;;13.93;82.69
77869;BME280;67231;59.144;37.934;2023-09-30T04:38:49;100149.31;;;14.06;82.62
77869;BME280;67231;59.144;37.934;2023-09-30T04:41:15;100145.75;;;14.14;82.02
77869;BME280;67231;59.144;37.934;2023-09-30T04:43:42;100146.25;;;14.17;81.94
77869;BME280;67231;59.144;37.934;2023-09-30T04:46:09;100154.75;;;14.21;82.31
77869;BME280;67231;59.144;37.934;2023-09-30T04:48:38;100145.53;;;14.24;81.99
77869;BME280;67231;59.144;37.934;2023-09-30T04:51:08;100146.34;;;14.32;81.40
77869;BME280;67231;59.144;37.934;2023-09-30T04:53:35;100144.81;;;14.46;81.09
77869;BME280;67231;59.144;37.934;2023-09-30T04:56:02;100143.72;;;14.55;81.09
77869;BME280;67231;59.144;37.934;2023-09-30T04:58:29;100146.53;;;14.70;80.72
77869;BME280;67231;59.144;37.934;2023-09-30T05:00:56;100151.31;;;14.83;80.15
77869;BME280;67231;59.144;37.934;2023-09-30T05:03:22;100145.38;;;14.96;79.94
77869;BME280;67231;59.144;37.934;2023-09-30T05:05:52;100147.81;;;15.06;79.27
77869;BME280;67231;59.144;37.934;2023-09-30T05:08:19;100157.53;;;15.22;79.41
77869;BME280;67231;59.144;37.934;2023-09-30T05:10:46;100159.44;;;15.36;78.89
77869;BME280;67231;59.144;37.934;2023-09-30T05:13:12;100158.03;;;15.63;78.33
77869;BME280;67231;59.144;37.934;2023-09-30T05:15:38;100154.94;;;16.05;77.45
77869;BME280;67231;59.144;37.934;2023-09-30T05:18:05;100158.13;;;16.45;76.18
77869;BME280;67231;59.144;37.934;2023-09-30T05:20:31;100151.03;;;16.52;75.78
77869;BME280;67231;59.144;37.934;2023-09-30T05:22:57;100148.72;;;16.49;75.73
77869;BME280;67231;59.144;37.934;2023-09-30T05:25:24;100148.88;;;16.62;75.36
77869;BME280;67231;59.144;37.934;2023-09-30T05:27:52;100145.06;;;16.71;74.92
77869;BME280;67231;59.144;37.934;2023-09-30T05:30:19;100140.72;;;16.70;75.00
77869;BME280;67231;59.144;37.934;2023-09-30T05:32:46;100143.19;;;16.87;74.46
77869;BME280;67231;59.144;37.934;2023-09-30T05:35:13;100145.75;;;17.17;73.80
77869;BME280;67231;59.144;37.934;2023-09-30T05:37:43;100142.22;;;17.38;73.09
77869;BME280;67231;59.144;37.934;2023-09-30T05:40:11;100145.06;;;17.58;72.54
77869;BME280;67231;59.144;37.934;2023-09-30T05:42:54;100141.09;;;17.54;72.50
77869;BME280;67231;59.144;37.934;2023-09-30T05:45:24;100142.31;;;17.51;72.49
77869;BME280;67231;59.144;37.934;2023-09-30T05:47:56;100133.47;;;17.57;72.35
77869;BME280;67231;59.144;37.934;2023-09-30T05:50:23;100147.97;;;17.91;71.54
77869;BME280;67231;59.144;37.934;2023-09-30T05:52:54;100136.59;;;18.17;71.04
77869;BME280;67231;59.144;37.934;2023-09-30T05:55:22;100141.41;;;18.35;70.13
77869;BME280;67231;59.144;37.934;2023-09-30T05:57:49;100138.19;;;18.60;69.90
77869;BME280;67231;59.144;37.934;2023-09-30T06:00:17;100133.25;;;18.70;69.13
77869;BME280;67231;59.144;37.934;2023-09-30T06:02:48;100122.56;;;18.84;69.07
77869;BME280;67231;59.144;37.934;2023-09-30T06:05:15;100128.00;;;19.04;68.08
77869;BME280;67231;59.144;37.934;2023-09-30T06:07:42;100127.13;;;19.03;68.07
77869;BME280;67231;59.144;37.934;2023-09-30T06:10:11;100123.44;;;18.98;69.19
77869;BME280;67231;59.144;37.934;2023-09-30T06:12:38;100125.47;;;18.96;68.66
77869;BME280;67231;59.144;37.934;2023-09-30T06:15:05;100125.25;;;18.84;69.00
77869;BME280;67231;59.144;37.934;2023-09-30T06:17:32;100112.19;;;18.74;68.38
77869;BME280;67231;59.144;37.934;2023-09-30T06:19:59;100115.47;;;18.76;68.57
77869;BME280;67231;59.144;37.934;2023-09-30T06:22:35;100111.63;;;18.99;67.63
77869;BME280;67231;59.144;37.934;2023-09-30T06:25:01;100120.13;;;19.02;67.80
77869;BME280;67231;59.144;37.934;2023-09-30T06:27:31;100113.06;;;18.95;67.68
77869;BME280;67231;59.144;37.934;2023-09-30T06:29:58;100116.34;;;18.83;67.80
77869;BME280;67231;59.144;37.934;2023-09-30T06:32:24;100113.47;;;18.85;67.61
77869;BME280;67231;59.144;37.934;2023-09-30T06:34:51;100109.69;;;18.66;68.58
77869;BME280;67231;59.144;37.934;2023-09-30T06:37:19;100111.69;;;18.50;68.44
77869;BME280;67231;59.144;37.934;2023-09-30T06:39:47;100109.59;;;18.39;68.77
77869;BME280;67231;59.144;37.934;2023-09-30T06:42:14;100110.06;;;18.49;68.28
77869;BME280;67231;59.144;37.934;2023-09-30T06:44:40;100110.91;;;18.70;67.80
77869;BME280;67231;59.144;37.934;2023-09-30T06:47:07;100112.25;;;18.94;67.27
77869;BME280;67231;59.144;37.934;2023-09-30T06:49:38;100113.72;;;19.23;66.62
77869;BME280;67231;59.144;37.934;2023-09-30T06:52:05;100105.22;;;19.40;66.16
77869;BME280;67231;59.144;37.934;2023-09-30T06:54:32;100112.66;;;19.51;66.16
77869;BME280;67231;59.144;37.934;2023-09-30T06:56:59;100104.38;;;19.59;65.41
77869;BME280;67231;59.144;37.934;2023-09-30T06:59:26;100097.53;;;19.63;65.32
77869;BME280;67231;59.144;37.934;2023-09-30T07:01:52;100091.75;;;19.60;65.42
77869;BME280;67231;59.144;37.934;2023-09-30T07:04:19;100089.03;;;19.67;64.61
77869;BME280;67231;59.144;37.934;2023-09-30T07:06:45;100083.66;;;19.80;64.87
77869;BME280;67231;59.144;37.934;2023-09-30T07:09:12;100084.22;;;20.02;64.80
77869;BME280;67231;59.144;37.934;2023-09-30T07:11:38;100085.63;;;20.11;64.95
77869;BME280;67231;59.144;37.934;2023-09-30T07:14:05;100081.06;;;20.12;65.10
77869;BME280;67231;59.144;37.934;2023-09-30T07:16:31;100080.63;;;20.15;63.91
77869;BME280;67231;59.144;37.934;2023-09-30T07:18:58;100072.31;;;20.23;63.94
77869;BME280;67231;59.144;37.934;2023-09-30T07:21:25;100073.72;;;20.32;63.33
77869;BME280;67231;59.144;37.934;2023-09-30T07:23:51;100065.78;;;20.44;63.67
77869;BME280;67231;59.144;37.934;2023-09-30T07:26:23;100065.59;;;20.39;63.06
77869;BME280;67231;59.144;37.934;2023-09-30T07:28:50;100062.31;;;20.30;63.69
77869;BME280;67231;59.144;37.934;2023-09-30T07:31:17;100069.69;;;20.10;63.97
77869;BME280;67231;59.144;37.934;2023-09-30T07:33:43;100078.88;;;19.69;64.53
77869;BME280;67231;59.144;37.934;2023-09-30T07:36:10;100075.63;;;19.40;64.95
77869;BME280;67231;59.144;37.934;2023-09-30T07:38:36;100064.22;;;19.51;64.41
77869;BME280;67231;59.144;37.934;2023-09-30T07:41:03;100062.13;;;19.67;64.69
77869;BME280;67231;59.144;37.934;2023-09-30T07:43:31;100060.84;;;19.69;64.63
77869;BME280;67231;59.144;37.934;2023-09-30T07:45:58;100068.06;;;19.89;64.13
77869;BME280;67231;59.144;37.934;2023-09-30T07:48:25;100061.28;;;19.86;64.19
77869;BME280;67231;59.144;37.934;2023-09-30T07:50:52;100061.69;;;19.83;64.34
77869;BME280;67231;59.144;37.934;2023-09-30T07:53:18;100066.25;;;19.82;64.09
77869;BME280;67231;59.144;37.934;2023-09-30T07:55:45;100062.09;;;19.87;63.92
77869;BME280;67231;59.144;37.934;2023-09-30T07:58:11;100069.50;;;19.98;63.54
77869;BME280;67231;59.144;37.934;2023-09-30T08:00:38;100058.09;;;20.02;63.37
77869;BME280;67231;59.144;37.934;2023-09-30T08:03:04;100064.34;;;19.90;63.47
77869;BME280;67231;59.144;37.934;2023-09-30T08:05:32;100060.03;;;19.82;63.55
77869;BME280;67231;59.144;37.934;2023-09-30T08:07:59;100055.06;;;19.65;64.31
77869;BME280;67231;59.144;37.934;2023-09-30T08:10:25;100063.19;;;19.52;64.07
77869;BME280;67231;59.144;37.934;2023-09-30T08:12:52;100053.66;;;19.50;64.20
77869;BME280;67231;59.144;37.934;2023-09-30T08:15:19;100053.09;;;19.34;64.67
77869;BME280;67231;59.144;37.934;2023-09-30T08:17:45;100047.28;;;19.17;65.03
77869;BME280;67231;59.144;37.934;2023-09-30T08:20:12;100051.44;;;19.06;65.51
77869;BME280;67231;59.144;37.934;2023-09-30T08:22:39;100051.03;;;18.89;65.75
77869;BME280;67231;59.144;37.934;2023-09-30T08:25:07;100046.00;;;18.66;66.57
77869;BME280;67231;59.144;37.934;2023-09-30T08:27:36;100043.09;;;18.54;66.78
77869;BME280;67231;59.144;37.934;2023-09-30T08:30:03;100035.22;;;18.46;66.94
77869;BME280;67231;59.144;37.934;2023-09-30T08:32:36;100049.25;;;18.42;67.05
77869;BME280;67231;59.144;37.934;2023-09-30T08:35:03;100045.47;;;18.23;67.59
77869;BME280;67231;59.144;37.934;2023-09-30T08:37:30;100042.97;;;18.14;68.02
77869;BME280;67231;59.144;37.934;2023-09-30T08:39:57;100030.97;;;18.10;68.29
77869;BME280;67231;59.144;37.934;2023-09-30T08:42:26;100022.28;;;18.08;68.71
77869;BME280;67231;59.144;37.934;2023-09-30T08:44:57;100025.78;;;18.02;68.64
77869;BME280;67231;59.144;37.934;2023-09-30T08:47:28;100025.56;;;17.97;68.99
77869;BME280;67231;59.144;37.934;2023-09-30T08:49:56;100021.81;;;17.91;69.15
77869;BME280;67231;59.144;37.934;2023-09-30T08:52:32;100014.09;;;17.81;69.11
77869;BME280;67231;59.144;37.934;2023-09-30T08:55:01;100010.78;;;17.79;69.61
77869;BME280;67231;59.144;37.934;2023-09-30T08:57:30;100009.38;;;17.83;69.57
77869;BME280;67231;59.144;37.934;2023-09-30T08:59:57;99999.25;;;17.86;69.60
77869;BME280;67231;59.144;37.934;2023-09-30T09:02:24;99995.81;;;17.92;69.69
77869;BME280;67231;59.144;37.934;2023-09-30T09:04:51;99997.28;;;18.01;69.72
77869;BME280;67231;59.144;37.934;2023-09-30T09:07:18;99993.75;;;18.00;69.69
77869;BME280;67231;59.144;37.934;2023-09-30T09:10:04;99992.53;;;18.03;69.44
77869;BME280;67231;59.144;37.934;2023-09-30T09:12:36;99992.53;;;18.03;69.17
77869;BME280;67231;59.144;37.934;2023-09-30T09:15:05;99989.66;;;18.11;69.87
77869;BME280;67231;59.144;37.934;2023-09-30T09:17:43;99995.47;;;18.22;69.46
77869;BME280;67231;59.144;37.934;2023-09-30T09:20:11;99993.25;;;18.32;69.17
77869;BME280;67231;59.144;37.934;2023-09-30T09:22:41;99997.16;;;18.36;69.17
77869;BME280;67231;59.144;37.934;2023-09-30T09:25:07;99998.63;;;18.45;68.93
77869;BME280;67231;59.144;37.934;2023-09-30T09:27:34;99990.16;;;18.62;68.93
77869;BME280;67231;59.144;37.934;2023-09-30T09:30:18;99990.19;;;18.75;68.50
77869;BME280;67231;59.144;37.934;2023-09-30T09:33:03;99985.22;;;18.79;68.22
77869;BME280;67231;59.144;37.934;2023-09-30T09:35:33;99982.31;;;18.80;68.25
77869;BME280;67231;59.144;37.934;2023-09-30T09:38:05;99982.75;;;18.90;68.01
77869;BME280;67231;59.144;37.934;2023-09-30T09:40:35;99974.50;;;19.05;67.65
77869;BME280;67231;59.144;37.934;2023-09-30T09:43:04;99970.72;;;19.13;67.79
77869;BME280;67231;59.144;37.934;2023-09-30T09:45:35;99971.97;;;19.17;67.03
77869;BME280;67231;59.144;37.934;2023-09-30T09:48:05;99974.22;;;19.34;66.90
77869;BME280;67231;59.144;37.934;2023-09-30T09:50:32;99961.81;;;19.33;67.13
77869;BME280;67231;59.144;37.934;2023-09-30T09:52:59;99964.06;;;19.36;66.73
77869;BME280;67231;59.144;37.934;2023-09-30T09:55:27;99957.22;;;19.40;66.77
77869;BME280;67231;59.144;37.934;2023-09-30T09:57:54;99960.72;;;19.47;66.67
77869;BME280;67231;59.144;37.934;2023-09-30T10:00:22;99956.97;;;19.48;66.86
77869;BME280;67231;59.144;37.934;2023-09-30T10:02:50;99959.84;;;19.53;66.76
77869;BME280;67231;59.144;37.934;2023-09-30T10:05:18;99952.66;;;19.47;66.88
77869;BME280;67231;59.144;37.934;2023-09-30T10:07:56;99946.16;;;19.61;66.95
77869;BME280;67231;59.144;37.934;2023-09-30T10:10:24;99948.63;;;19.70;66.88
77869;BME280;67231;59.144;37.934;2023-09-30T10:12:51;99949.44;;;19.77;66.37
77869;BME280;67231;59.144;37.934;2023-09-30T10:18:06;99945.94;;;19.70;66.60
77869;BME280;67231;59.144;37.934;2023-09-30T10:20:41;99934.56;;;19.61;66.84
77869;BME280;67231;59.144;37.934;2023-09-30T10:23:22;99931.66;;;19.62;66.64
77869;BME280;67231;59.144;37.934;2023-09-30T10:28:43;99934.75;;;19.66;66.44
77869;BME280;67231;59.144;37.934;2023-09-30T10:31:18;99933.38;;;19.57;66.73
77869;BME280;67231;59.144;37.934;2023-09-30T10:36:32;99923.94;;;19.34;67.07
77869;BME280;67231;59.144;37.934;2023-09-30T10:38:59;99927.44;;;19.35;67.04
77869;BME280;67231;59.144;37.934;2023-09-30T10:46:58;99917.53;;;19.28;67.09
77869;BME280;67231;59.144;37.934;2023-09-30T10:51:57;99901.63;;;19.20;66.97
77869;BME280;67231;59.144;37.934;2023-09-30T10:54:28;99910.72;;;19.19;66.96
77869;BME280;67231;59.144;37.934;2023-09-30T10:56:55;99904.91;;;19.22;67.09
77869;BME280;67231;59.144;37.934;2023-09-30T10:59:24;99906.75;;;19.28;66.38
77869;BME280;67231;59.144;37.934;2023-09-30T11:01:51;99906.34;;;19.32;66.29
77869;BME280;67231;59.144;37.934;2023-09-30T11:04:18;99897.41;;;19.38;66.34
77869;BME280;67231;59.144;37.934;2023-09-30T11:06:46;99901.75;;;19.45;66.46
77869;BME280;67231;59.144;37.934;2023-09-30T11:09:17;99902.94;;;19.50;66.32
77869;BME280;67231;59.144;37.934;2023-09-30T11:14:29;99892.53;;;19.67;65.63
77869;BME280;67231;59.144;37.934;2023-09-30T11:17:01;99891.22;;;19.82;65.65
77869;BME280;67231;59.144;37.934;2023-09-30T11:19:46;99895.88;;;20.00;64.80
77869;BME280;67231;59.144;37.934;2023-09-30T11:22:14;99888.78;;;20.06;64.39
77869;BME280;67231;59.144;37.934;2023-09-30T11:24:41;99891.00;;;20.16;64.97
77869;BME280;67231;59.144;37.934;2023-09-30T11:27:08;99899.00;;;20.29;64.24
77869;BME280;67231;59.144;37.934;2023-09-30T11:29:35;99886.50;;;20.35;64.40
77869;BME280;67231;59.144;37.934;2023-09-30T11:32:02;99897.06;;;20.36;64.33
77869;BME280;67231;59.144;37.934;2023-09-30T11:34:36;99896.63;;;20.40;64.50
77869;BME280;67231;59.144;37.934;2023-09-30T11:37:03;99882.16;;;20.34;64.77
77869;BME280;67231;59.144;37.934;2023-09-30T11:39:31;99885.53;;;20.29;65.28
77869;BME280;67231;59.144;37.934;2023-09-30T11:41:59;99879.69;;;20.32;65.08
77869;BME280;67231;59.144;37.934;2023-09-30T11:44:27;99877.88;;;20.26;65.47
77869;BME280;67231;59.144;37.934;2023-09-30T11:46:57;99870.81;;;20.25;65.29
77869;BME280;67231;59.144;37.934;2023-09-30T11:52:03;99873.25;;;20.33;64.61
77869;BME280;67231;59.144;37.934;2023-09-30T11:54:37;99885.63;;;20.41;64.14
77869;BME280;67231;59.144;37.934;2023-09-30T11:57:08;99879.19;;;20.42;63.99
77869;BME280;67231;59.144;37.934;2023-09-30T11:59:38;99875.91;;;20.40;63.60
77869;BME280;67231;59.144;37.934;2023-09-30T12:02:10;99867.63;;;20.35;63.40
77869;BME280;67231;59.144;37.934;2023-09-30T12:04:37;99874.75;;;20.29;63.43
77869;BME280;67231;59.144;37.934;2023-09-30T12:07:05;99877.72;;;20.21;63.81
77869;BME280;67231;59.144;37.934;2023-09-30T12:09:33;99870.50;;;20.15;64.65
77869;BME280;67231;59.144;37.934;2023-09-30T12:12:01;99874.28;;;20.07;65.16
77869;BME280;67231;59.144;37.934;2023-09-30T12:14:28;99871.41;;;20.02;64.83
77869;BME280;67231;59.144;37.934;2023-09-30T12:16:57;99872.06;;;19.97;65.74
77869;BME280;67231;59.144;37.934;2023-09-30T12:19:23;99880.25;;;19.84;66.35
77869;BME280;67231;59.144;37.934;2023-09-30T12:21:51;99880.91;;;19.73;66.20
77869;BME280;67231;59.144;37.934;2023-09-30T12:24:18;99880.28;;;19.71;66.23
77869;BME280;67231;59.144;37.934;2023-09-30T12:26:49;99872.44;;;19.62;65.78
77869;BME280;67231;59.144;37.934;2023-09-30T12:29:17;99869.75;;;19.62;65.91
77869;BME280;67231;59.144;37.934;2023-09-30T12:31:48;99874.13;;;19.63;65.47
77869;BME280;67231;59.144;37.934;2023-09-30T12:34:15;99867.06;;;19.62;65.47
77869;BME280;67231;59.144;37.934;2023-09-30T12:36:42;99866.03;;;19.63;65.26
77869;BME280;67231;59.144;37.934;2023-09-30T12:39:09;99870.78;;;19.61;65.38
77869;BME280;67231;59.144;37.934;2023-09-30T12:41:43;99867.50;;;19.59;65.06
77869;BME280;67231;59.144;37.934;2023-09-30T12:44:10;99862.53;;;19.56;65.55
77869;BME280;67231;59.144;37.934;2023-09-30T12:46:37;99867.31;;;19.54;65.76
77869;BME280;67231;59.144;37.934;2023-09-30T12:49:06;99861.94;;;19.54;65.34
77869;BME280;67231;59.144;37.934;2023-09-30T12:51:34;99856.16;;;19.51;65.17
77869;BME280;67231;59.144;37.934;2023-09-30T12:54:01;99861.97;;;19.47;65.19
77869;BME280;67231;59.144;37.934;2023-09-30T12:56:27;99850.81;;;19.44;65.21
77869;BME280;67231;59.144;37.934;2023-09-30T12:58:58;99840.69;;;19.39;65.07
77869;BME280;67231;59.144;37.934;2023-09-30T13:01:25;99841.94;;;19.37;65.47
77869;BME280;67231;59.144;37.934;2023-09-30T13:03:51;99841.13;;;19.36;65.61
77869;BME280;67231;59.144;37.934;2023-09-30T13:06:19;99839.88;;;19.32;65.55
77869;BME280;67231;59.144;37.934;2023-09-30T13:08:45;99844.88;;;19.28;65.41